createdAt,value
2022-07-29T00:02:54.520Z,14.18
2022-07-29T00:07:57.799Z,14.05
2022-07-29T00:13:00.655Z,13.97
2022-07-29T00:18:03.661Z,13.91
2022-07-29T00:23:06.518Z,13.90
2022-07-29T00:28:09.538Z,13.87
2022-07-29T00:33:12.423Z,13.78
2022-07-29T00:38:16.826Z,13.70
2022-07-29T00:43:19.708Z,13.61
2022-07-29T00:48:22.586Z,13.57
2022-07-29T00:53:26.501Z,13.57
2022-07-29T00:58:30.154Z,13.53
2022-07-29T01:03:32.955Z,13.45
2022-07-29T01:08:37.072Z,13.39
2022-07-29T01:13:40.091Z,13.39
2022-07-29T01:18:49.364Z,13.41
2022-07-29T01:24:19.749Z,13.42
2022-07-29T01:29:25.567Z,13.37
2022-07-29T01:34:54.206Z,13.31
2022-07-29T01:40:00.318Z,13.25
2022-07-29T01:45:11.765Z,13.19
2022-07-29T01:50:18.914Z,13.08
2022-07-29T01:55:25.784Z,12.95
2022-07-29T02:00:29.488Z,12.85
2022-07-29T02:05:35.521Z,12.78
2022-07-29T02:10:41.672Z,12.77
2022-07-29T02:15:46.078Z,12.78
2022-07-29T02:20:53.936Z,12.79
2022-07-29T02:25:59.158Z,12.83
2022-07-29T02:31:03.946Z,12.80
2022-07-29T02:36:07.639Z,12.72
2022-07-29T02:41:14.620Z,12.66
2022-07-29T02:46:29.304Z,12.62
2022-07-29T02:51:44.829Z,12.55
2022-07-29T02:56:50.882Z,12.47
2022-07-29T03:01:56.397Z,12.43
2022-07-29T03:07:01.821Z,12.40
2022-07-29T03:12:06.796Z,12.32
2022-07-29T03:17:10.888Z,12.30
2022-07-29T03:22:14.788Z,12.40
2022-07-29T03:27:18.291Z,12.55
2022-07-29T03:32:24.028Z,12.66
2022-07-29T03:37:28.353Z,12.76
2022-07-29T03:42:37.146Z,12.91
2022-07-29T03:47:51.033Z,13.06
2022-07-29T03:52:55.515Z,13.19
2022-07-29T03:57:59.912Z,13.33
2022-07-29T04:03:05.185Z,13.56
2022-07-29T04:08:13.582Z,13.75
2022-07-29T04:13:16.474Z,13.91
2022-07-29T04:18:19.465Z,14.05
2022-07-29T04:23:22.285Z,14.16
2022-07-29T04:28:25.256Z,14.36
2022-07-29T04:33:28.217Z,15.08
2022-07-29T04:38:31.050Z,18.17
2022-07-29T04:43:36.930Z,22.38
2022-07-29T04:48:39.936Z,25.99
2022-07-29T04:53:42.868Z,28.63
2022-07-29T04:58:45.737Z,30.95
2022-07-29T05:03:49.255Z,32.82
2022-07-29T05:08:52.070Z,34.56
2022-07-29T05:13:54.971Z,35.50
2022-07-29T05:18:58.727Z,34.27
2022-07-29T05:24:02.390Z,30.98
2022-07-29T05:29:05.309Z,27.98
2022-07-29T05:34:08.105Z,25.65
2022-07-29T05:39:11.631Z,24.16
2022-07-29T05:44:15.220Z,23.05
2022-07-29T05:49:27.011Z,22.14
2022-07-29T05:54:30.176Z,21.75
2022-07-29T05:59:37.513Z,21.44
2022-07-29T06:04:40.436Z,21.09
2022-07-29T06:09:43.725Z,20.95
2022-07-29T06:14:49.848Z,20.84
2022-07-29T06:19:55.103Z,20.95
2022-07-29T06:24:58.017Z,21.15
2022-07-29T06:30:00.908Z,21.32
2022-07-29T06:35:31.906Z,21.20
2022-07-29T06:40:45.797Z,21.35
2022-07-29T06:45:49.188Z,23.98
2022-07-29T06:50:52.150Z,27.11
2022-07-29T06:55:55.014Z,29.22
2022-07-29T07:00:59.384Z,30.76
2022-07-29T07:06:02.926Z,31.34
2022-07-29T07:11:07.371Z,32.56
2022-07-29T07:16:10.308Z,34.48
2022-07-29T07:21:19.089Z,35.82
2022-07-29T07:26:22.535Z,36.19
2022-07-29T07:31:25.384Z,36.14
2022-07-29T07:36:28.934Z,36.28
2022-07-29T07:41:32.461Z,36.58
2022-07-29T07:46:36.071Z,36.56
2022-07-29T07:51:41.408Z,36.34
2022-07-29T07:56:44.442Z,35.57
2022-07-29T08:01:47.837Z,34.50
2022-07-29T08:06:59.787Z,34.35
2022-07-29T08:12:06.956Z,33.81
2022-07-29T08:17:10.634Z,33.24
2022-07-29T08:22:13.251Z,33.31
2022-07-29T08:27:41.805Z,33.34
2022-07-29T08:32:55.558Z,33.10
2022-07-29T08:37:59.761Z,32.74
2022-07-29T08:43:09.363Z,32.58
2022-07-29T08:48:16.490Z,32.14
2022-07-29T08:53:20.078Z,31.74
2022-07-29T08:58:25.561Z,31.55
2022-07-29T09:03:32.688Z,31.13
2022-07-29T09:08:35.732Z,30.76
2022-07-29T09:13:38.729Z,30.57
2022-07-29T09:18:44.033Z,30.40
2022-07-29T09:24:10.315Z,30.37
2022-07-29T09:29:22.291Z,30.10
2022-07-29T09:34:29.534Z,29.71
2022-07-29T09:39:37.473Z,29.30
2022-07-29T09:44:50.209Z,28.80
2022-07-29T09:49:54.824Z,28.54
2022-07-29T09:55:13.518Z,27.90
2022-07-29T10:00:19.825Z,26.46
2022-07-29T10:05:25.793Z,25.91
2022-07-29T10:10:36.808Z,25.73
2022-07-29T10:15:42.149Z,25.59
2022-07-29T10:20:45.236Z,25.32
2022-07-29T10:25:48.910Z,24.90
2022-07-29T10:30:55.350Z,24.98
2022-07-29T10:36:07.610Z,24.96
2022-07-29T10:41:27.420Z,24.36
2022-07-29T10:46:41.995Z,23.99
2022-07-29T10:52:10.427Z,24.00
2022-07-29T10:57:16.484Z,23.96
2022-07-29T11:08:16.871Z,24.14
2022-07-29T11:13:46.467Z,24.54
2022-07-29T11:19:14.526Z,24.65
2022-07-29T11:24:29.963Z,24.73
2022-07-29T11:29:33.731Z,24.55
2022-07-29T11:34:43.516Z,24.48
2022-07-29T11:39:48.623Z,24.45
2022-07-29T11:44:59.166Z,24.43
2022-07-29T11:50:14.401Z,24.49
2022-07-29T11:55:21.218Z,24.44
2022-07-29T12:00:35.262Z,24.27
2022-07-29T12:05:48.164Z,24.14
2022-07-29T12:10:52.715Z,24.10
2022-07-29T12:16:00.077Z,24.09
2022-07-29T12:21:04.997Z,23.94
2022-07-29T12:26:11.138Z,23.84
2022-07-29T12:31:43.829Z,23.87
2022-07-29T12:36:47.863Z,24.09
2022-07-29T12:41:50.807Z,24.36
2022-07-29T12:47:04.799Z,24.77
2022-07-29T12:52:29.272Z,25.13
2022-07-29T12:57:33.101Z,25.25
2022-07-29T13:02:37.798Z,25.24
2022-07-29T13:07:55.709Z,25.31
2022-07-29T13:13:06.492Z,25.30
2022-07-29T13:18:47.959Z,25.34
2022-07-29T13:23:50.979Z,25.21
2022-07-29T13:28:53.915Z,25.14
2022-07-29T13:33:57.512Z,25.08
2022-07-29T13:39:02.368Z,24.84
2022-07-29T13:44:05.537Z,24.72
2022-07-29T13:49:08.444Z,24.55
2022-07-29T13:54:11.288Z,24.33
2022-07-29T13:59:14.263Z,24.19
2022-07-29T14:04:17.110Z,24.12
2022-07-29T14:09:20.024Z,24.04
2022-07-29T14:14:23.158Z,24.01
2022-07-29T14:19:27.118Z,23.87
2022-07-29T14:24:30.383Z,23.61
2022-07-29T14:29:37.267Z,23.49
2022-07-29T14:34:41.338Z,23.67
2022-07-29T14:39:44.078Z,23.95
2022-07-29T14:44:48.882Z,24.13
2022-07-29T14:49:52.340Z,24.14
2022-07-29T14:54:55.319Z,23.93
2022-07-29T14:59:58.191Z,23.80
2022-07-29T15:05:00.984Z,23.56
2022-07-29T15:10:05.374Z,23.37
2022-07-29T15:15:11.251Z,23.19
2022-07-29T15:20:15.304Z,23.08
2022-07-29T15:25:18.619Z,22.95
2022-07-29T15:30:31.581Z,22.76
2022-07-29T15:35:40.470Z,22.61
2022-07-29T15:40:44.805Z,22.52
2022-07-29T15:46:06.331Z,22.46
2022-07-29T15:51:09.491Z,22.51
2022-07-29T15:56:13.111Z,22.54
2022-07-29T16:01:16.842Z,22.53
2022-07-29T16:06:21.276Z,22.40
2022-07-29T16:11:24.791Z,22.33
2022-07-29T16:16:28.440Z,22.27
2022-07-29T16:21:31.851Z,22.22
2022-07-29T16:26:35.772Z,22.16
2022-07-29T16:31:38.696Z,22.08
2022-07-29T16:36:45.985Z,21.98
2022-07-29T16:41:50.712Z,21.83
2022-07-29T16:46:55.994Z,21.74
2022-07-29T16:52:01.979Z,21.67
2022-07-29T16:57:04.959Z,21.62
2022-07-29T17:02:07.830Z,21.56
2022-07-29T17:07:10.887Z,21.52
2022-07-29T17:12:13.876Z,21.47
2022-07-29T17:17:20.665Z,21.43
2022-07-29T17:22:41.018Z,21.38
2022-07-29T17:27:43.902Z,21.30
2022-07-29T17:32:48.351Z,21.22
2022-07-29T17:37:51.851Z,21.12
2022-07-29T17:42:54.724Z,21.05
2022-07-29T17:47:57.594Z,20.96
2022-07-29T17:53:00.485Z,20.87
2022-07-29T17:58:03.886Z,20.79
2022-07-29T18:03:07.236Z,20.70
2022-07-29T18:08:11.067Z,20.62
2022-07-29T18:13:14.178Z,20.53
2022-07-29T18:18:18.742Z,20.45
2022-07-29T18:23:21.802Z,20.36
2022-07-29T18:28:24.676Z,20.27
2022-07-29T18:33:28.026Z,20.16
2022-07-29T18:38:31.012Z,20.04
2022-07-29T18:43:33.951Z,19.92
2022-07-29T18:48:36.759Z,19.77
2022-07-29T18:53:40.163Z,19.61
2022-07-29T18:58:42.947Z,19.44
2022-07-29T19:03:45.820Z,19.28
2022-07-29T19:08:48.677Z,19.13
2022-07-29T19:13:51.666Z,18.99
2022-07-29T19:18:54.958Z,18.84
2022-07-29T19:24:01.423Z,18.70
2022-07-29T19:29:11.725Z,18.56
2022-07-29T19:34:14.553Z,18.42
2022-07-29T19:39:17.404Z,18.27
2022-07-29T19:44:20.192Z,18.12
2022-07-29T19:49:23.026Z,17.97
2022-07-29T19:54:27.037Z,17.81
2022-07-29T19:59:29.910Z,17.69
2022-07-29T20:04:32.727Z,17.55
2022-07-29T20:09:36.866Z,17.43
2022-07-29T20:14:39.709Z,17.32
2022-07-29T20:19:42.841Z,17.20
2022-07-29T20:24:46.401Z,17.11
2022-07-29T20:29:49.237Z,16.99
2022-07-29T20:34:52.064Z,16.86
2022-07-29T20:39:54.897Z,16.74
2022-07-29T20:44:58.394Z,16.64
2022-07-29T20:50:01.187Z,16.54
2022-07-29T20:55:04.423Z,16.44
2022-07-29T21:00:09.237Z,16.35
2022-07-29T21:05:12.256Z,16.26
2022-07-29T21:10:15.556Z,16.19
2022-07-29T21:15:20.922Z,16.12
2022-07-29T21:20:23.665Z,16.06
2022-07-29T21:25:26.656Z,16.00
2022-07-29T21:30:29.588Z,15.95
2022-07-29T21:40:56.640Z,15.82
2022-07-29T21:46:00.951Z,15.73
2022-07-29T21:51:05.186Z,15.62
2022-07-29T21:56:13.066Z,15.51
2022-07-29T22:01:18.485Z,15.39
2022-07-29T22:06:21.382Z,15.27
2022-07-29T22:11:24.246Z,15.16
2022-07-29T22:16:27.201Z,15.04
2022-07-29T22:21:30.627Z,14.95
2022-07-29T22:26:34.019Z,14.87
2022-07-29T22:31:36.772Z,14.82
2022-07-29T22:36:41.196Z,14.77
2022-07-29T22:41:44.430Z,14.72
2022-07-29T22:46:47.315Z,14.68
2022-07-29T22:51:50.090Z,14.61
2022-07-29T22:56:53.272Z,14.54
2022-07-29T23:01:56.178Z,14.49
2022-07-29T23:06:59.157Z,14.46
2022-07-29T23:12:02.263Z,14.42
2022-07-29T23:17:05.925Z,14.34
2022-07-29T23:22:08.789Z,14.26
2022-07-29T23:27:11.570Z,14.20
2022-07-29T23:32:14.327Z,14.13
2022-07-29T23:37:17.422Z,14.08
2022-07-29T23:42:20.220Z,14.06
2022-07-29T23:47:23.168Z,14.06
2022-07-29T23:52:26.066Z,14.06
2022-07-29T23:57:28.968Z,14.03
